createdAt,value
2023-01-01T00:01:21.891Z,9.80
2023-01-01T00:03:52.178Z,9.90
2023-01-01T00:06:19.190Z,9.80
2023-01-01T00:08:46.199Z,9.80
2023-01-01T00:11:12.888Z,9.80
2023-01-01T00:13:40.680Z,9.80
2023-01-01T00:16:14.424Z,9.90
2023-01-01T00:18:41.209Z,9.80
2023-01-01T00:21:10.485Z,9.90
2023-01-01T00:23:37.121Z,10.00
2023-01-01T00:26:10.405Z,10.00
2023-01-01T00:28:37.001Z,10.00
2023-01-01T00:31:10.101Z,10.00
2023-01-01T00:33:36.806Z,10.00
2023-01-01T00:36:07.675Z,10.00
2023-01-01T00:38:34.498Z,9.90
2023-01-01T00:41:01.243Z,11.10
2023-01-01T00:43:27.811Z,9.80
2023-01-01T00:45:54.495Z,9.80
2023-01-01T00:48:21.333Z,9.60
2023-01-01T00:50:48.656Z,9.50
2023-01-01T00:53:15.337Z,9.90
2023-01-01T00:55:42.062Z,9.20
2023-01-01T00:58:08.822Z,9.10
2023-01-01T01:00:35.571Z,9.00
2023-01-01T01:03:02.232Z,8.90
2023-01-01T01:05:28.912Z,8.80
2023-01-01T01:07:55.585Z,8.70
2023-01-01T01:10:22.255Z,8.60
2023-01-01T01:12:48.927Z,8.50
2023-01-01T01:15:15.601Z,8.40
2023-01-01T01:17:42.248Z,8.40
2023-01-01T01:20:09.048Z,8.30
2023-01-01T01:22:35.821Z,8.30
2023-01-01T01:25:02.466Z,8.30
2023-01-01T01:27:29.097Z,8.30
2023-01-01T01:29:55.694Z,8.30
2023-01-01T01:32:22.337Z,8.30
2023-01-01T01:34:49.152Z,8.30
2023-01-01T01:37:15.799Z,8.30
2023-01-01T01:39:42.403Z,8.30
2023-01-01T01:42:12.639Z,8.30
2023-01-01T01:44:45.371Z,8.30
2023-01-01T01:47:17.559Z,8.30
2023-01-01T01:49:44.249Z,8.20
2023-01-01T01:52:11.090Z,8.20
2023-01-01T01:54:38.382Z,9.50
2023-01-01T01:57:06.580Z,8.20
2023-01-01T01:59:35.389Z,8.10
2023-01-01T02:02:02.404Z,8.20
2023-01-01T02:04:29.541Z,8.20
2023-01-01T02:06:56.223Z,8.10
2023-01-01T02:09:23.105Z,8.00
2023-01-01T02:11:49.791Z,7.80
2023-01-01T02:14:16.441Z,7.80
2023-01-01T02:16:45.409Z,7.80
2023-01-01T02:19:24.077Z,7.80
2023-01-01T02:22:01.939Z,7.90
2023-01-01T02:24:43.964Z,8.00
2023-01-01T02:27:18.408Z,8.00
2023-01-01T02:29:47.873Z,8.10
2023-01-01T02:32:18.729Z,8.20
2023-01-01T02:34:49.140Z,8.30
2023-01-01T02:37:18.416Z,8.40
2023-01-01T02:39:48.076Z,8.50
2023-01-01T02:42:15.550Z,11.20
2023-01-01T02:44:44.731Z,9.10
2023-01-01T02:47:14.888Z,9.20
2023-01-01T02:49:47.066Z,9.50
2023-01-01T02:52:22.046Z,9.60
2023-01-01T02:54:53.619Z,9.70
2023-01-01T02:57:38.211Z,9.90
2023-01-01T03:00:27.968Z,9.90
2023-01-01T03:03:18.682Z,10.10
2023-01-01T03:06:10.031Z,10.20
2023-01-01T03:08:46.375Z,10.30
2023-01-01T03:11:14.819Z,10.40
2023-01-01T03:13:49.648Z,10.30
2023-01-01T03:16:28.676Z,10.50
2023-01-01T03:19:17.105Z,10.40
2023-01-01T03:21:47.416Z,10.60
2023-01-01T03:24:17.631Z,10.80
2023-01-01T03:26:44.821Z,10.90
2023-01-01T03:29:12.954Z,11.10
2023-01-01T03:31:42.520Z,11.10
2023-01-01T03:34:12.853Z,12.10
2023-01-01T03:36:41.847Z,11.30
2023-01-01T03:39:12.120Z,11.40
2023-01-01T03:41:40.950Z,11.50
2023-01-01T03:44:11.865Z,11.40
2023-01-01T03:46:38.561Z,11.30
2023-01-01T03:49:06.576Z,12.60
2023-01-01T03:51:39.337Z,11.10
2023-01-01T03:54:24.437Z,11.00
2023-01-01T03:57:09.932Z,10.80
2023-01-01T03:59:42.449Z,10.60
2023-01-01T04:02:11.148Z,10.50
2023-01-01T04:04:38.116Z,10.40
2023-01-01T04:07:14.941Z,10.40
2023-01-01T04:09:45.038Z,10.50
2023-01-01T04:12:11.693Z,10.40
2023-01-01T04:14:40.017Z,10.40
2023-01-01T04:17:07.451Z,10.30
2023-01-01T04:19:34.092Z,11.70
2023-01-01T04:22:01.251Z,10.20
2023-01-01T04:24:28.198Z,10.20
2023-01-01T04:26:55.208Z,10.10
2023-01-01T04:29:21.966Z,10.10
2023-01-01T04:31:49.012Z,8.80
2023-01-01T04:34:15.765Z,10.00
2023-01-01T04:36:42.526Z,9.80
2023-01-01T04:39:09.160Z,9.90
2023-01-01T04:41:35.803Z,9.80
2023-01-01T04:44:02.537Z,9.80
2023-01-01T04:46:29.227Z,9.80
2023-01-01T04:48:55.831Z,9.90
2023-01-01T04:51:22.576Z,9.90
2023-01-01T04:53:49.200Z,9.90
2023-01-01T04:56:17.332Z,9.90
2023-01-01T04:58:44.422Z,9.90
2023-01-01T05:01:15.477Z,9.90
2023-01-01T05:03:42.172Z,9.80
2023-01-01T05:06:10.134Z,9.80
2023-01-01T05:08:38.044Z,9.70
2023-01-01T05:11:09.277Z,9.70
2023-01-01T05:13:36.401Z,9.60
2023-01-01T05:16:03.943Z,9.70
2023-01-01T05:18:31.140Z,9.60
2023-01-01T05:21:05.281Z,9.60
2023-01-01T05:23:32.451Z,9.50
2023-01-01T05:25:59.149Z,9.50
2023-01-01T05:28:25.815Z,10.20
2023-01-01T05:30:53.218Z,9.60
2023-01-01T05:33:20.363Z,9.60
2023-01-01T05:35:52.278Z,9.50
2023-01-01T05:38:18.985Z,9.60
2023-01-01T05:40:45.618Z,9.30
2023-01-01T05:43:12.233Z,9.50
2023-01-01T05:45:39.153Z,9.50
2023-01-01T05:48:07.225Z,9.50
2023-01-01T05:50:33.897Z,9.30
2023-01-01T05:53:00.533Z,9.20
2023-01-01T05:55:27.275Z,9.20
2023-01-01T05:57:53.890Z,9.10
2023-01-01T06:00:20.570Z,9.10
2023-01-01T06:02:47.246Z,9.10
2023-01-01T06:05:13.932Z,9.00
2023-01-01T06:07:44.774Z,9.00
2023-01-01T06:10:14.909Z,9.00
2023-01-01T06:12:41.514Z,8.90
2023-01-01T06:15:08.488Z,8.90
2023-01-01T06:17:35.152Z,8.90
2023-01-01T06:20:01.795Z,9.00
2023-01-01T06:22:28.433Z,8.90
2023-01-01T06:24:55.042Z,8.90
2023-01-01T06:27:21.612Z,9.00
2023-01-01T06:29:48.220Z,9.00
2023-01-01T06:32:14.822Z,9.10
2023-01-01T06:34:41.435Z,9.10
2023-01-01T06:37:08.048Z,9.20
2023-01-01T06:39:34.671Z,9.30
2023-01-01T06:42:01.262Z,9.30
2023-01-01T06:44:27.964Z,9.30
2023-01-01T06:46:54.703Z,11.80
2023-01-01T06:49:21.340Z,9.30
2023-01-01T06:51:48.011Z,9.40
2023-01-01T06:54:14.624Z,9.40
2023-01-01T06:56:41.391Z,10.80
2023-01-01T06:59:08.117Z,9.30
2023-01-01T07:01:40.062Z,9.30
2023-01-01T07:04:12.369Z,9.30
2023-01-01T07:06:39.267Z,9.30
2023-01-01T07:09:06.554Z,9.30
2023-01-01T07:11:33.742Z,9.20
2023-01-01T07:14:00.331Z,9.20
2023-01-01T07:16:27.082Z,9.10
2023-01-01T07:18:54.149Z,9.10
2023-01-01T07:21:28.693Z,9.00
2023-01-01T07:24:00.893Z,10.50
2023-01-01T07:26:28.357Z,9.00
2023-01-01T07:28:56.426Z,9.00
2023-01-01T07:31:26.269Z,9.00
2023-01-01T07:33:52.846Z,9.00
2023-01-01T07:36:19.627Z,9.00
2023-01-01T07:38:46.269Z,9.00
2023-01-01T07:41:13.051Z,9.00
2023-01-01T07:43:39.647Z,9.50
2023-01-01T07:46:06.338Z,9.00
2023-01-01T07:48:39.533Z,9.00
2023-01-01T07:51:06.712Z,9.70
2023-01-01T07:53:33.365Z,9.00
2023-01-01T07:55:59.999Z,9.00
2023-01-01T07:58:26.673Z,8.90
2023-01-01T08:00:53.294Z,10.10
2023-01-01T08:03:20.047Z,9.00
2023-01-01T08:05:46.836Z,8.90
2023-01-01T08:08:13.397Z,8.90
2023-01-01T08:10:39.982Z,8.80
2023-01-01T08:13:07.187Z,8.80
2023-01-01T08:15:34.009Z,8.80
2023-01-01T08:18:01.459Z,10.00
2023-01-01T08:20:28.699Z,8.80
2023-01-01T08:22:55.414Z,8.80
2023-01-01T08:25:22.375Z,8.70
2023-01-01T08:27:49.144Z,8.70
2023-01-01T08:30:16.687Z,8.70
2023-01-01T08:32:43.478Z,8.70
2023-01-01T08:35:10.116Z,8.80
2023-01-01T08:37:36.744Z,8.80
2023-01-01T08:40:03.457Z,11.60
2023-01-01T08:42:30.061Z,8.90
2023-01-01T08:44:56.678Z,8.90
2023-01-01T08:47:24.389Z,9.00
2023-01-01T08:49:51.443Z,9.10
2023-01-01T08:52:20.366Z,9.20
2023-01-01T08:54:47.026Z,9.30
2023-01-01T08:57:13.790Z,9.40
2023-01-01T08:59:40.464Z,9.50
2023-01-01T09:02:07.322Z,10.30
2023-01-01T09:04:34.319Z,9.70
2023-01-01T09:07:00.936Z,9.70
2023-01-01T09:09:31.707Z,10.00
2023-01-01T09:12:03.939Z,9.90
2023-01-01T09:14:30.899Z,10.10
2023-01-01T09:16:57.612Z,10.20
2023-01-01T09:19:24.245Z,10.20
2023-01-01T09:21:51.154Z,10.20
2023-01-01T09:24:17.695Z,10.30
2023-01-01T09:26:45.513Z,10.30
2023-01-01T09:29:12.133Z,11.90
2023-01-01T09:31:38.765Z,10.40
2023-01-01T09:34:05.375Z,10.40
2023-01-01T09:36:32.562Z,10.50
2023-01-01T09:38:59.436Z,10.50
2023-01-01T09:41:33.461Z,10.50
2023-01-01T09:44:00.041Z,10.50
2023-01-01T09:46:31.657Z,10.60
2023-01-01T09:49:01.314Z,10.60
2023-01-01T09:51:30.619Z,10.60
2023-01-01T09:54:26.582Z,10.70
2023-01-01T09:56:55.285Z,10.70
2023-01-01T09:59:21.950Z,10.80
2023-01-01T10:01:57.679Z,11.30
2023-01-01T10:04:36.542Z,10.90
2023-01-01T10:07:22.086Z,11.00
2023-01-01T10:10:04.052Z,11.00
2023-01-01T10:12:42.286Z,11.10
2023-01-01T10:15:15.812Z,11.10
2023-01-01T10:17:45.160Z,11.10
2023-01-01T10:20:33.619Z,11.20
2023-01-01T10:23:02.580Z,11.20
2023-01-01T10:25:30.779Z,11.40
2023-01-01T10:28:02.290Z,11.30
2023-01-01T10:30:29.467Z,11.40
2023-01-01T10:32:56.443Z,11.50
2023-01-01T10:35:34.348Z,11.60
2023-01-01T10:38:01.842Z,12.00
2023-01-01T10:40:29.499Z,11.70
2023-01-01T10:42:57.347Z,11.70
2023-01-01T10:45:34.440Z,11.70
2023-01-01T10:48:19.806Z,11.90
2023-01-01T10:50:46.433Z,11.90
2023-01-01T10:53:25.032Z,12.00
2023-01-01T10:55:57.423Z,12.10
2023-01-01T10:58:32.823Z,13.60
2023-01-01T11:01:00.948Z,12.30
2023-01-01T11:03:27.747Z,13.80
2023-01-01T11:06:03.291Z,12.50
2023-01-01T11:08:31.533Z,12.50
2023-01-01T11:10:59.440Z,12.60
2023-01-01T11:13:26.444Z,12.70
2023-01-01T11:15:53.054Z,12.80
2023-01-01T11:18:19.600Z,12.80
2023-01-01T11:20:51.672Z,13.50
2023-01-01T11:23:20.058Z,12.90
2023-01-01T11:25:58.916Z,13.00
2023-01-01T11:28:26.195Z,13.00
2023-01-01T11:31:15.460Z,13.10
2023-01-01T11:33:45.036Z,13.20
2023-01-01T11:36:12.015Z,13.30
2023-01-01T11:38:38.696Z,13.30
2023-01-01T11:41:06.564Z,13.30
2023-01-01T11:43:39.075Z,13.30
2023-01-01T11:46:07.618Z,13.30
2023-01-01T11:48:34.950Z,13.80
2023-01-01T11:51:06.154Z,13.40
2023-01-01T11:53:34.357Z,13.40
2023-01-01T11:56:18.496Z,14.10
2023-01-01T11:58:53.869Z,13.40
2023-01-01T12:01:39.442Z,13.40
2023-01-01T12:04:11.565Z,13.50
2023-01-01T12:06:40.992Z,13.50
2023-01-01T12:09:18.799Z,13.60
2023-01-01T12:11:51.474Z,13.60
2023-01-01T12:14:21.166Z,13.60
2023-01-01T12:17:06.690Z,13.60
2023-01-01T12:19:36.258Z,13.70
2023-01-01T12:22:03.186Z,15.00
2023-01-01T12:24:33.803Z,13.80
2023-01-01T12:27:11.087Z,13.90
2023-01-01T12:29:44.052Z,15.10
2023-01-01T12:32:18.917Z,13.90
2023-01-01T12:34:50.718Z,14.00
2023-01-01T12:37:37.335Z,13.90
2023-01-01T12:40:14.970Z,13.90
2023-01-01T12:42:43.867Z,13.90
2023-01-01T12:45:13.479Z,14.00
2023-01-01T12:47:52.329Z,14.00
2023-01-01T12:50:18.905Z,14.00
2023-01-01T12:52:51.702Z,14.10
2023-01-01T12:55:33.609Z,14.10
2023-01-01T12:58:00.176Z,14.20
2023-01-01T13:00:27.787Z,15.20
2023-01-01T13:03:04.681Z,15.20
2023-01-01T13:05:40.216Z,14.20
2023-01-01T13:08:07.452Z,14.30
2023-01-01T13:10:37.029Z,14.30
2023-01-01T13:13:04.601Z,15.50
2023-01-01T13:15:35.626Z,14.30
2023-01-01T13:18:05.060Z,14.30
2023-01-01T13:20:32.139Z,15.60
2023-01-01T13:22:58.806Z,14.30
2023-01-01T13:25:25.484Z,14.40
2023-01-01T13:28:03.015Z,14.40
2023-01-01T13:30:35.492Z,14.40
2023-01-01T13:33:26.034Z,14.40
2023-01-01T13:36:16.020Z,14.40
2023-01-01T13:38:55.138Z,14.40
2023-01-01T13:41:37.176Z,14.40
2023-01-01T13:44:03.735Z,14.40
2023-01-01T13:46:33.600Z,14.40
2023-01-01T13:49:09.579Z,14.40
2023-01-01T13:54:47.712Z,14.40
2023-01-01T13:57:30.879Z,14.40
2023-01-01T14:00:05.533Z,14.30
2023-01-01T14:02:45.475Z,14.30
2023-01-01T14:05:17.735Z,14.30
2023-01-01T14:07:52.648Z,14.30
2023-01-01T14:10:25.846Z,14.30
2023-01-01T14:12:53.357Z,14.30
2023-01-01T14:15:31.118Z,14.40
2023-01-01T14:18:00.173Z,14.40
2023-01-01T14:20:33.175Z,14.40
2023-01-01T14:23:04.868Z,14.40
2023-01-01T14:25:31.624Z,15.20
2023-01-01T14:27:58.814Z,15.10
2023-01-01T14:30:25.625Z,14.40
2023-01-01T14:32:55.762Z,14.90
2023-01-01T14:35:22.350Z,14.20
2023-01-01T14:37:48.953Z,14.20
2023-01-01T14:40:18.016Z,14.20
2023-01-01T14:42:45.641Z,14.10
2023-01-01T14:45:17.149Z,14.10
2023-01-01T14:47:47.879Z,14.00
2023-01-01T14:50:20.549Z,14.00
2023-01-01T14:52:51.091Z,14.00
2023-01-01T14:55:18.974Z,13.90
2023-01-01T14:57:46.877Z,13.90
2023-01-01T15:00:24.179Z,13.90
2023-01-01T15:02:50.912Z,13.80
2023-01-01T15:05:34.625Z,13.70
2023-01-01T15:08:03.149Z,13.60
2023-01-01T15:10:30.820Z,13.70
2023-01-01T15:12:57.872Z,13.60
2023-01-01T15:15:53.956Z,13.50
2023-01-01T15:18:34.830Z,13.40
2023-01-01T15:21:02.339Z,13.30
2023-01-01T15:23:29.056Z,13.20
2023-01-01T15:25:55.945Z,13.10
2023-01-01T15:28:22.593Z,13.00
2023-01-01T15:30:53.859Z,12.80
2023-01-01T15:33:20.924Z,12.70
2023-01-01T15:35:48.562Z,12.60
2023-01-01T15:38:25.478Z,12.50
2023-01-01T15:40:53.859Z,12.40
2023-01-01T15:43:25.453Z,12.30
2023-01-01T15:46:10.721Z,12.20
2023-01-01T15:48:46.121Z,12.20
2023-01-01T15:51:16.032Z,12.10
2023-01-01T15:53:57.921Z,12.00
2023-01-01T15:56:26.453Z,12.00
2023-01-01T15:58:54.039Z,11.90
2023-01-01T16:01:22.487Z,11.90
2023-01-01T16:03:52.090Z,11.90
2023-01-01T16:06:19.763Z,13.10
2023-01-01T16:08:46.565Z,11.80
2023-01-01T16:11:14.318Z,11.70
2023-01-01T16:13:40.991Z,11.60
2023-01-01T16:16:20.669Z,11.50
2023-01-01T16:18:47.322Z,11.40
2023-01-01T16:21:13.922Z,11.30
2023-01-01T16:23:40.504Z,11.20
2023-01-01T16:26:07.141Z,11.10
2023-01-01T16:28:33.751Z,11.00
2023-01-01T16:31:00.425Z,11.00
2023-01-01T16:33:27.064Z,11.00
2023-01-01T16:35:53.829Z,11.00
2023-01-01T16:38:20.421Z,10.90
2023-01-01T16:40:47.042Z,10.90
2023-01-01T16:43:17.837Z,10.90
2023-01-01T16:45:44.812Z,10.90
2023-01-01T16:48:11.500Z,10.90
2023-01-01T16:50:38.164Z,10.80
2023-01-01T16:53:04.806Z,10.80
2023-01-01T16:55:31.481Z,10.80
2023-01-01T16:58:21.133Z,10.70
2023-01-01T17:00:44.792Z,10.60
2023-01-01T17:03:11.498Z,10.60
2023-01-01T17:05:43.791Z,10.60
2023-01-01T17:08:11.125Z,10.50
2023-01-01T17:10:37.745Z,10.50
2023-01-01T17:13:04.422Z,10.50
2023-01-01T17:15:31.706Z,10.50
2023-01-01T17:17:58.476Z,10.50
2023-01-01T17:20:25.798Z,10.40
2023-01-01T17:22:52.428Z,10.30
2023-01-01T17:25:19.068Z,10.30
2023-01-01T17:27:45.814Z,10.30
2023-01-01T17:30:13.028Z,10.30
2023-01-01T17:32:39.736Z,10.20
2023-01-01T17:35:06.797Z,10.20
2023-01-01T17:37:33.519Z,10.10
2023-01-01T17:40:00.553Z,7.80
2023-01-01T17:42:27.208Z,9.90
2023-01-01T17:44:53.849Z,9.70
2023-01-01T17:47:20.644Z,9.50
2023-01-01T17:49:48.606Z,9.40
2023-01-01T17:52:15.308Z,9.40
2023-01-01T17:54:42.093Z,8.10
2023-01-01T17:57:08.837Z,9.30
2023-01-01T17:59:35.565Z,9.30
2023-01-01T18:02:02.269Z,9.40
2023-01-01T18:04:29.172Z,9.30
2023-01-01T18:06:58.490Z,9.20
2023-01-01T18:09:29.109Z,9.20
2023-01-01T18:11:55.735Z,9.20
2023-01-01T18:14:24.658Z,9.20
2023-01-01T18:16:51.621Z,9.10
2023-01-01T18:19:18.301Z,9.10
2023-01-01T18:21:45.019Z,9.10
2023-01-01T18:24:12.901Z,9.10
2023-01-01T18:26:39.721Z,9.10
2023-01-01T18:29:06.408Z,9.10
2023-01-01T18:31:34.021Z,9.40
2023-01-01T18:34:04.523Z,9.10
2023-01-01T18:36:33.022Z,9.00
2023-01-01T18:39:08.783Z,9.00
2023-01-01T18:41:54.203Z,8.90
2023-01-01T18:44:21.978Z,8.90
2023-01-01T18:47:06.797Z,8.90
2023-01-01T18:49:33.976Z,8.80
2023-01-01T18:52:15.103Z,8.70
2023-01-01T18:54:41.798Z,8.70
2023-01-01T18:57:23.675Z,8.90
2023-01-01T18:59:54.664Z,8.70
2023-01-01T19:02:30.619Z,8.70
2023-01-01T19:05:05.810Z,8.70
2023-01-01T19:07:32.449Z,8.60
2023-01-01T19:09:59.347Z,8.60
2023-01-01T19:12:28.456Z,8.40
2023-01-01T19:14:55.111Z,8.40
2023-01-01T19:17:23.321Z,8.40
2023-01-01T19:19:50.834Z,8.50
2023-01-01T19:22:33.608Z,8.50
2023-01-01T19:25:02.510Z,8.50
2023-01-01T19:27:30.205Z,8.50
2023-01-01T19:29:56.868Z,8.50
2023-01-01T19:32:23.549Z,9.90
2023-01-01T19:34:50.282Z,8.40
2023-01-01T19:37:16.859Z,8.40
2023-01-01T19:39:43.818Z,8.40
2023-01-01T19:42:11.385Z,8.40
2023-01-01T19:44:38.733Z,8.50
2023-01-01T19:47:05.445Z,8.50
2023-01-01T19:49:32.334Z,8.50
2023-01-01T19:51:58.993Z,8.40
2023-01-01T19:54:26.283Z,8.40
2023-01-01T19:56:53.036Z,8.40
2023-01-01T19:59:19.681Z,9.00
2023-01-01T20:01:48.001Z,8.90
2023-01-01T20:04:24.525Z,8.60
2023-01-01T20:06:51.234Z,8.70
2023-01-01T20:09:17.867Z,8.60
2023-01-01T20:11:46.089Z,8.60
2023-01-01T20:14:16.049Z,8.70
2023-01-01T20:16:44.734Z,8.70
2023-01-01T20:19:11.348Z,8.80
2023-01-01T20:21:56.698Z,8.80
2023-01-01T20:24:23.314Z,8.90
2023-01-01T20:26:50.068Z,8.80
2023-01-01T20:29:19.918Z,8.80
2023-01-01T20:31:47.103Z,8.70
2023-01-01T20:34:13.800Z,8.70
2023-01-01T20:36:59.204Z,8.80
2023-01-01T20:39:25.877Z,8.70
2023-01-01T20:41:52.782Z,8.60
2023-01-01T20:44:19.403Z,8.50
2023-01-01T20:46:48.055Z,8.40
2023-01-01T20:49:17.115Z,8.40
2023-01-01T20:51:44.532Z,8.50
2023-01-01T20:54:11.109Z,8.50
2023-01-01T20:56:37.755Z,8.60
2023-01-01T20:59:17.944Z,8.60
2023-01-01T21:01:51.123Z,8.60
2023-01-01T21:04:17.916Z,8.60
2023-01-01T21:06:44.664Z,8.60
2023-01-01T21:09:11.305Z,8.60
2023-01-01T21:11:37.961Z,9.60
2023-01-01T21:14:04.686Z,8.70
2023-01-01T21:16:32.595Z,8.80
2023-01-01T21:19:00.789Z,8.90
2023-01-01T21:21:33.325Z,8.90
2023-01-01T21:24:16.870Z,9.00
2023-01-01T21:26:43.462Z,9.10
2023-01-01T21:29:14.896Z,9.20
2023-01-01T21:31:43.085Z,9.30
2023-01-01T21:34:24.990Z,9.40
2023-01-01T21:36:52.583Z,9.50
2023-01-01T21:39:22.589Z,9.60
2023-01-01T21:41:49.325Z,9.70
2023-01-01T21:44:15.980Z,9.70
2023-01-01T21:46:47.076Z,9.70
2023-01-01T21:49:32.925Z,9.80
2023-01-01T21:52:00.948Z,9.80
2023-01-01T21:54:32.277Z,9.80
2023-01-01T21:56:59.955Z,9.80
2023-01-01T21:59:40.032Z,9.90
2023-01-01T22:02:07.036Z,9.90
2023-01-01T22:04:33.774Z,9.90
2023-01-01T22:07:09.514Z,9.80
2023-01-01T22:09:45.476Z,9.80
2023-01-01T22:12:14.912Z,9.60
2023-01-01T22:14:45.829Z,9.60
2023-01-01T22:17:14.720Z,9.50
2023-01-01T22:19:43.972Z,9.50
2023-01-01T22:22:12.508Z,9.40
2023-01-01T22:24:39.295Z,9.40
2023-01-01T22:27:14.720Z,9.30
2023-01-01T22:29:42.497Z,9.30
2023-01-01T22:32:28.033Z,9.30
2023-01-01T22:34:55.376Z,9.30
2023-01-01T22:37:24.928Z,9.30
2023-01-01T22:39:51.855Z,9.20
2023-01-01T22:42:19.519Z,9.10
2023-01-01T22:44:56.331Z,9.10
2023-01-01T22:47:25.568Z,9.10
2023-01-01T22:49:53.093Z,9.10
2023-01-01T22:52:19.668Z,9.00
2023-01-01T22:54:46.313Z,9.10
2023-01-01T22:57:12.932Z,10.20
2023-01-01T22:59:39.490Z,9.10
2023-01-01T23:02:06.946Z,9.10
2023-01-01T23:04:33.591Z,9.20
2023-01-01T23:07:00.640Z,9.20
2023-01-01T23:09:27.268Z,9.20
2023-01-01T23:11:54.609Z,9.20
2023-01-01T23:14:40.190Z,9.20
2023-01-01T23:17:06.821Z,9.20
2023-01-01T23:19:33.484Z,9.20
2023-01-01T23:22:00.826Z,9.30
2023-01-01T23:24:28.688Z,9.40
2023-01-01T23:26:55.525Z,9.50
2023-01-01T23:29:23.244Z,9.60
2023-01-01T23:31:49.862Z,9.80
2023-01-01T23:34:16.610Z,9.90
2023-01-01T23:36:43.656Z,10.00
2023-01-01T23:39:10.480Z,10.10
2023-01-01T23:41:37.063Z,10.20
2023-01-01T23:44:03.711Z,10.20
2023-01-01T23:46:32.145Z,10.30
2023-01-01T23:48:58.813Z,10.40
2023-01-01T23:51:25.481Z,10.40
2023-01-01T23:53:52.182Z,10.40
2023-01-01T23:56:18.797Z,10.50
2023-01-01T23:58:45.340Z,10.50
